You are listening to:
KSWF Tower - Newburgh, New York, United States

KSWF 040145Z 27005KT 10SM SCT100 19/19 A2970

If stream doesn't start automatically press the play button
If stream stops then reload player then press play